createdAt,value
2023-05-21T00:01:17.783Z,7.20
2023-05-21T00:03:47.585Z,7.28
2023-05-21T00:06:16.711Z,6.95
2023-05-21T00:08:44.753Z,7.55
2023-05-21T00:11:12.765Z,7.55
2023-05-21T00:13:40.824Z,7.35
2023-05-21T00:16:09.038Z,7.30
2023-05-21T00:18:37.154Z,6.55
2023-05-21T00:21:05.338Z,7.20
2023-05-21T00:23:34.077Z,7.28
2023-05-21T00:26:02.602Z,7.72
2023-05-21T00:28:30.624Z,7.68
2023-05-21T00:30:58.583Z,7.35
2023-05-21T00:33:27.845Z,7.07
2023-05-21T00:35:56.542Z,7.05
2023-05-21T00:38:25.001Z,7.37
2023-05-21T00:40:53.011Z,7.65
2023-05-21T00:43:21.003Z,7.78
2023-05-21T00:45:49.827Z,7.40
2023-05-21T00:48:17.879Z,7.65
2023-05-21T00:50:46.253Z,7.97
2023-05-21T00:53:16.655Z,7.57
2023-05-21T00:55:44.650Z,7.60
2023-05-21T00:58:12.745Z,7.50
2023-05-21T01:00:42.018Z,8.05
2023-05-21T01:03:10.552Z,7.75
2023-05-21T01:05:38.719Z,7.75
2023-05-21T01:08:07.037Z,7.72
2023-05-21T01:10:35.079Z,7.50
2023-05-21T01:13:03.086Z,7.62
2023-05-21T01:15:31.143Z,7.87
2023-05-21T01:17:59.268Z,8.10
2023-05-21T01:20:27.235Z,7.68
2023-05-21T01:22:56.206Z,7.60
2023-05-21T01:25:24.754Z,7.70
2023-05-21T01:27:53.209Z,7.93
2023-05-21T01:30:21.930Z,8.07
2023-05-21T01:32:51.237Z,8.07
2023-05-21T01:35:22.704Z,8.38
2023-05-21T01:37:53.588Z,8.65
2023-05-21T01:40:25.712Z,8.40
2023-05-21T01:42:53.724Z,8.73
2023-05-21T01:45:21.749Z,8.93
2023-05-21T01:47:50.943Z,8.38
2023-05-21T01:50:19.874Z,8.00
2023-05-21T01:52:55.002Z,8.73
2023-05-21T01:55:25.921Z,8.82
2023-05-21T01:57:57.098Z,7.85
2023-05-21T02:00:25.952Z,7.85
2023-05-21T02:02:54.208Z,8.55
2023-05-21T02:05:22.214Z,8.30
2023-05-21T02:07:56.206Z,7.57
2023-05-21T02:10:24.262Z,8.77
2023-05-21T02:12:52.255Z,7.95
2023-05-21T02:15:20.630Z,8.77
2023-05-21T02:17:48.685Z,7.82
2023-05-21T02:20:16.949Z,8.40
2023-05-21T02:22:46.524Z,8.18
2023-05-21T02:25:15.677Z,8.60
2023-05-21T02:27:44.153Z,8.13
2023-05-21T02:30:12.976Z,8.65
2023-05-21T02:32:43.911Z,8.35
2023-05-21T02:35:13.988Z,9.13
2023-05-21T02:37:42.034Z,8.63
2023-05-21T02:40:11.291Z,9.07
2023-05-21T02:42:42.778Z,8.57
2023-05-21T02:45:11.775Z,8.93
2023-05-21T02:47:40.153Z,9.63
2023-05-21T02:50:09.239Z,9.20
2023-05-21T02:52:37.277Z,9.35
2023-05-21T02:55:05.537Z,8.77
2023-05-21T02:57:33.563Z,9.38
2023-05-21T03:00:01.530Z,9.70
2023-05-21T03:02:29.626Z,9.35
2023-05-21T03:04:57.686Z,9.40
2023-05-21T03:07:25.897Z,8.60
2023-05-21T03:09:53.984Z,8.38
2023-05-21T03:12:21.973Z,8.63
2023-05-21T03:14:52.589Z,7.90
2023-05-21T03:17:21.798Z,8.90
2023-05-21T03:19:50.451Z,8.32
2023-05-21T03:22:18.428Z,8.40
2023-05-21T03:24:46.621Z,8.13
2023-05-21T03:27:14.643Z,8.80
2023-05-21T03:29:44.570Z,9.00
2023-05-21T03:32:12.812Z,8.02
2023-05-21T03:34:40.891Z,7.93
2023-05-21T03:37:08.857Z,8.88
2023-05-21T03:39:36.824Z,8.57
2023-05-21T03:42:04.936Z,8.70
2023-05-21T03:44:33.808Z,8.65
2023-05-21T03:47:01.781Z,8.18
2023-05-21T03:49:29.834Z,9.38
2023-05-21T03:51:57.856Z,9.18
2023-05-21T03:54:25.931Z,9.60
2023-05-21T03:56:53.963Z,8.88
2023-05-21T03:59:21.988Z,8.80
2023-05-21T04:01:50.002Z,8.85
2023-05-21T04:04:17.981Z,9.75
2023-05-21T04:06:46.041Z,9.05
2023-05-21T04:09:14.253Z,9.48
2023-05-21T04:11:42.400Z,9.20
2023-05-21T04:14:10.389Z,9.18
2023-05-21T04:16:40.085Z,8.85
2023-05-21T04:19:08.207Z,10.30
2023-05-21T04:21:36.267Z,9.93
2023-05-21T04:24:05.201Z,8.57
2023-05-21T04:26:35.432Z,9.30
2023-05-21T04:29:05.160Z,8.90
2023-05-21T04:31:36.043Z,10.05
2023-05-21T04:34:04.114Z,9.40
2023-05-21T04:36:32.130Z,9.50
2023-05-21T04:39:00.158Z,9.27
2023-05-21T04:41:28.172Z,8.88
2023-05-21T04:43:56.445Z,8.57
2023-05-21T04:46:27.317Z,8.77
2023-05-21T04:48:58.144Z,8.95
2023-05-21T04:51:26.276Z,8.75
2023-05-21T04:53:55.197Z,9.23
2023-05-21T04:56:29.329Z,8.73
2023-05-21T04:58:57.325Z,9.18
2023-05-21T05:01:26.765Z,9.05
2023-05-21T05:03:55.031Z,8.60
2023-05-21T05:06:23.684Z,8.65
2023-05-21T05:08:51.869Z,8.90
2023-05-21T05:11:19.867Z,9.07
2023-05-21T05:13:47.950Z,9.57
2023-05-21T05:16:18.878Z,9.15
2023-05-21T05:18:47.185Z,9.13
2023-05-21T05:21:15.225Z,9.27
2023-05-21T05:23:43.217Z,8.02
2023-05-21T05:26:12.389Z,9.05
2023-05-21T05:28:40.408Z,8.95
2023-05-21T05:31:08.430Z,9.27
2023-05-21T05:33:36.494Z,8.70
2023-05-21T05:36:04.583Z,9.02
2023-05-21T05:38:32.560Z,9.43
2023-05-21T05:41:00.557Z,9.55
2023-05-21T05:43:28.602Z,9.38
2023-05-21T05:45:56.790Z,9.13
2023-05-21T05:48:24.859Z,9.23
2023-05-21T05:50:56.017Z,8.98
2023-05-21T05:53:24.025Z,8.48
2023-05-21T05:55:52.096Z,10.05
2023-05-21T05:58:20.083Z,9.55
2023-05-21T06:00:48.153Z,9.70
2023-05-21T06:03:16.365Z,9.48
2023-05-21T06:05:44.372Z,9.25
2023-05-21T06:08:12.576Z,9.65
2023-05-21T06:10:40.757Z,9.35
2023-05-21T06:13:08.871Z,8.70
2023-05-21T06:15:37.807Z,9.88
2023-05-21T06:18:06.163Z,9.52
2023-05-21T06:20:34.290Z,9.20
2023-05-21T06:23:02.603Z,9.88
2023-05-21T06:25:30.783Z,9.75
2023-05-21T06:27:59.035Z,10.20
2023-05-21T06:30:27.172Z,10.02
2023-05-21T06:32:55.396Z,9.60
2023-05-21T06:35:23.560Z,9.57
2023-05-21T06:37:51.689Z,10.40
2023-05-21T06:40:19.866Z,9.43
2023-05-21T06:42:48.029Z,9.60
2023-05-21T06:45:16.289Z,10.13
2023-05-21T06:47:44.443Z,9.60
2023-05-21T06:50:12.634Z,9.85
2023-05-21T06:52:40.835Z,9.25
2023-05-21T06:55:09.583Z,9.13
2023-05-21T06:57:39.660Z,9.70
2023-05-21T07:00:10.476Z,9.60
2023-05-21T07:02:38.705Z,9.27
2023-05-21T07:05:07.338Z,9.55
2023-05-21T07:07:36.351Z,9.30
2023-05-21T07:10:04.698Z,10.05
2023-05-21T07:12:32.896Z,9.15
2023-05-21T07:15:01.193Z,9.32
2023-05-21T07:17:29.348Z,8.93
2023-05-21T07:19:57.955Z,9.52
2023-05-21T07:22:28.320Z,9.70
2023-05-21T07:24:57.209Z,9.32
2023-05-21T07:27:26.266Z,9.48
2023-05-21T07:29:54.666Z,10.23
2023-05-21T07:32:22.862Z,9.90
2023-05-21T07:34:52.164Z,6.45
2023-05-21T07:37:22.540Z,7.40
2023-05-21T07:39:50.720Z,7.45
2023-05-21T07:42:18.899Z,7.20
2023-05-21T07:44:47.116Z,7.70
2023-05-21T07:47:15.212Z,7.47
2023-05-21T07:49:43.424Z,7.62
2023-05-21T07:52:11.746Z,8.13
2023-05-21T07:54:39.965Z,7.85
2023-05-21T07:57:08.178Z,8.10
2023-05-21T07:59:36.469Z,7.75
2023-05-21T08:02:04.561Z,8.40
2023-05-21T08:04:33.013Z,8.15
2023-05-21T08:07:01.407Z,7.20
2023-05-21T08:09:29.786Z,7.95
2023-05-21T08:11:57.900Z,7.15
2023-05-21T08:14:25.956Z,7.78
2023-05-21T08:16:54.308Z,8.30
2023-05-21T08:19:22.546Z,8.05
2023-05-21T08:21:52.870Z,7.22
2023-05-21T08:24:21.454Z,7.70
2023-05-21T08:26:51.094Z,7.50
2023-05-21T08:29:19.238Z,7.65
2023-05-21T08:31:47.830Z,7.50
2023-05-21T08:34:16.076Z,7.40
2023-05-21T08:36:48.440Z,6.37
2023-05-21T08:39:16.694Z,7.53
2023-05-21T08:41:50.853Z,7.62
2023-05-21T08:44:21.717Z,7.03
2023-05-21T08:46:51.584Z,6.70
2023-05-21T08:49:20.362Z,7.20
2023-05-21T08:51:48.602Z,7.28
2023-05-21T08:54:17.087Z,7.70
2023-05-21T08:56:48.366Z,7.00
2023-05-21T08:59:17.179Z,8.15
2023-05-21T09:01:45.906Z,7.72
2023-05-21T09:04:20.897Z,7.22
2023-05-21T09:06:49.771Z,7.18
2023-05-21T09:09:34.890Z,7.32
2023-05-21T09:12:03.173Z,7.12
2023-05-21T09:14:31.316Z,6.95
2023-05-21T09:16:59.686Z,6.93
2023-05-21T09:19:28.219Z,7.10
2023-05-21T09:21:56.388Z,7.57
2023-05-21T09:24:24.616Z,6.62
2023-05-21T09:26:52.867Z,6.70
2023-05-21T09:29:21.097Z,6.57
2023-05-21T09:31:49.435Z,6.70
2023-05-21T09:34:17.738Z,7.00
2023-05-21T09:36:45.993Z,6.68
2023-05-21T09:39:17.762Z,6.90
2023-05-21T09:41:46.232Z,7.03
2023-05-21T09:44:15.024Z,6.97
2023-05-21T09:46:43.241Z,6.80
2023-05-21T09:49:27.758Z,7.40
2023-05-21T09:51:59.631Z,7.20
2023-05-21T09:54:32.210Z,7.43
2023-05-21T09:57:06.367Z,7.62
2023-05-21T09:59:40.958Z,7.57
2023-05-21T10:02:23.236Z,7.68
2023-05-21T10:04:52.908Z,7.55
2023-05-21T10:07:28.409Z,6.25
2023-05-21T10:09:59.850Z,6.80
2023-05-21T10:12:28.909Z,7.35
2023-05-21T10:15:02.879Z,9.10
2023-05-21T10:17:31.745Z,8.38
2023-05-21T10:19:59.912Z,8.77
2023-05-21T10:22:28.191Z,7.87
2023-05-21T10:24:56.379Z,7.90
2023-05-21T10:27:24.616Z,7.12
2023-05-21T10:29:52.837Z,6.43
2023-05-21T10:32:21.136Z,5.90
2023-05-21T10:34:49.377Z,4.47
2023-05-21T10:37:17.673Z,4.25
2023-05-21T10:39:47.419Z,4.37
2023-05-21T10:42:33.961Z,3.92
2023-05-21T10:45:38.146Z,3.70
2023-05-21T10:48:38.441Z,3.60
2023-05-21T10:51:24.413Z,2.95
2023-05-21T10:54:17.839Z,3.45
2023-05-21T10:56:50.601Z,2.80
2023-05-21T10:59:36.633Z,3.03
2023-05-21T11:02:04.846Z,3.08
2023-05-21T11:04:33.737Z,3.42
2023-05-21T11:07:01.883Z,3.17
2023-05-21T11:09:30.068Z,2.72
2023-05-21T11:12:02.272Z,2.60
2023-05-21T11:14:34.991Z,2.17
2023-05-21T11:17:04.845Z,2.05
2023-05-21T11:19:43.424Z,1.95
2023-05-21T11:22:21.373Z,2.12
2023-05-21T11:24:51.394Z,2.15
2023-05-21T11:27:32.285Z,2.00
2023-05-21T11:30:00.598Z,1.92
2023-05-21T11:32:28.798Z,2.30
2023-05-21T11:34:58.065Z,2.30
2023-05-21T11:37:29.274Z,2.22
2023-05-21T11:39:58.591Z,2.15
2023-05-21T11:42:36.532Z,3.00
2023-05-21T11:45:05.636Z,3.10
2023-05-21T11:47:34.025Z,2.30
2023-05-21T11:50:03.224Z,2.67
2023-05-21T11:52:32.170Z,1.92
2023-05-21T11:55:01.191Z,2.00
2023-05-21T11:57:33.318Z,2.03
2023-05-21T12:00:02.677Z,1.87
2023-05-21T12:02:34.035Z,2.00
2023-05-21T12:05:02.210Z,2.00
2023-05-21T12:07:33.291Z,2.10
2023-05-21T12:10:01.626Z,2.30
2023-05-21T12:12:41.771Z,2.00
2023-05-21T12:15:19.371Z,2.40
2023-05-21T12:17:50.738Z,2.53
2023-05-21T12:20:18.871Z,2.50
2023-05-21T12:22:47.082Z,2.90
2023-05-21T12:25:15.198Z,2.58
2023-05-21T12:27:43.548Z,2.45
2023-05-21T12:30:12.489Z,2.05
2023-05-21T12:32:45.546Z,2.33
2023-05-21T12:35:24.652Z,2.15
2023-05-21T12:37:53.547Z,2.45
2023-05-21T12:40:21.776Z,2.37
2023-05-21T12:42:49.924Z,2.70
2023-05-21T12:45:19.929Z,2.60
2023-05-21T12:47:50.491Z,2.87
2023-05-21T12:50:20.200Z,2.65
2023-05-21T12:52:48.436Z,2.60
2023-05-21T12:55:16.644Z,2.50
2023-05-21T12:57:45.317Z,2.20
2023-05-21T13:00:14.045Z,2.67
2023-05-21T13:02:44.290Z,2.40
2023-05-21T13:05:18.895Z,2.67
2023-05-21T13:07:48.468Z,2.42
2023-05-21T13:10:17.730Z,2.47
2023-05-21T13:12:46.668Z,2.70
2023-05-21T13:15:15.473Z,2.37
2023-05-21T13:17:43.648Z,3.00
2023-05-21T13:20:16.541Z,2.30
2023-05-21T13:22:47.982Z,2.22
2023-05-21T13:25:17.760Z,2.50
2023-05-21T13:27:46.082Z,1.95
2023-05-21T13:30:14.312Z,2.70
2023-05-21T13:32:43.198Z,2.53
2023-05-21T13:35:12.296Z,2.67
2023-05-21T13:37:41.074Z,2.42
2023-05-21T13:40:12.413Z,2.50
2023-05-21T13:42:40.758Z,2.40
2023-05-21T13:45:10.621Z,2.80
2023-05-21T13:47:40.396Z,2.70
2023-05-21T13:50:09.884Z,2.35
2023-05-21T13:52:39.065Z,2.33
2023-05-21T13:55:07.975Z,2.50
2023-05-21T13:57:36.039Z,2.35
2023-05-21T14:00:05.458Z,2.72
2023-05-21T14:02:33.665Z,2.58
2023-05-21T14:05:02.161Z,2.58
2023-05-21T14:07:30.400Z,2.70
2023-05-21T14:09:58.648Z,2.80
2023-05-21T14:12:28.095Z,3.10
2023-05-21T14:14:56.969Z,3.17
2023-05-21T14:17:25.228Z,3.15
2023-05-21T14:19:53.410Z,3.10
2023-05-21T14:22:21.599Z,3.12
2023-05-21T14:24:50.155Z,3.05
2023-05-21T14:27:18.376Z,3.30
2023-05-21T14:29:46.543Z,3.15
2023-05-21T14:32:14.784Z,2.87
2023-05-21T14:34:43.255Z,3.85
2023-05-21T14:37:11.436Z,3.62
2023-05-21T14:39:39.703Z,3.20
2023-05-21T14:42:08.000Z,3.50
2023-05-21T14:44:36.212Z,3.87
2023-05-21T14:47:04.406Z,4.18
2023-05-21T14:49:32.549Z,3.90
2023-05-21T14:52:00.637Z,4.32
2023-05-21T14:54:28.966Z,3.95
2023-05-21T14:56:57.309Z,4.57
2023-05-21T14:59:25.445Z,4.15
2023-05-21T15:01:53.577Z,4.30
2023-05-21T15:04:22.023Z,3.92
2023-05-21T15:06:50.257Z,4.50
2023-05-21T15:09:18.427Z,4.37
2023-05-21T15:11:47.563Z,4.10
2023-05-21T15:14:15.645Z,3.90
2023-05-21T15:16:43.900Z,4.32
2023-05-21T15:19:13.332Z,3.97
2023-05-21T15:21:41.638Z,3.90
2023-05-21T15:24:09.919Z,3.90
2023-05-21T15:26:38.002Z,3.72
2023-05-21T15:29:06.176Z,3.90
2023-05-21T15:31:34.342Z,4.15
2023-05-21T15:34:02.732Z,4.00
2023-05-21T15:36:31.065Z,4.07
2023-05-21T15:38:59.277Z,4.12
2023-05-21T15:41:27.493Z,3.75
2023-05-21T15:43:55.801Z,3.72
2023-05-21T15:46:24.151Z,4.20
2023-05-21T15:48:52.341Z,5.45
2023-05-21T15:51:20.576Z,3.90
2023-05-21T15:53:48.685Z,4.20
2023-05-21T15:56:17.045Z,4.30
2023-05-21T15:58:45.391Z,3.97
2023-05-21T16:01:13.711Z,3.92
2023-05-21T16:03:42.084Z,4.12
2023-05-21T16:06:11.789Z,4.30
2023-05-21T16:08:40.126Z,4.65
2023-05-21T16:11:08.252Z,4.57
2023-05-21T16:13:36.484Z,4.57
2023-05-21T16:16:04.776Z,4.70
2023-05-21T16:18:33.089Z,4.20
2023-05-21T16:21:01.542Z,4.43
2023-05-21T16:23:29.739Z,4.05
2023-05-21T16:25:57.838Z,4.28
2023-05-21T16:28:27.455Z,4.30
2023-05-21T16:30:55.678Z,4.40
2023-05-21T16:33:23.842Z,5.37
2023-05-21T16:35:52.096Z,5.35
2023-05-21T16:38:20.319Z,4.20
2023-05-21T16:40:48.866Z,4.70
2023-05-21T16:43:17.732Z,5.15
2023-05-21T16:45:47.118Z,4.53
2023-05-21T16:48:15.660Z,4.37
2023-05-21T16:50:44.369Z,6.03
2023-05-21T16:53:12.997Z,4.60
2023-05-21T16:55:41.718Z,4.22
2023-05-21T16:58:10.904Z,5.43
2023-05-21T17:00:39.116Z,4.68
2023-05-21T17:03:08.101Z,4.85
2023-05-21T17:05:37.235Z,4.28
2023-05-21T17:08:06.052Z,4.68
2023-05-21T17:10:34.559Z,4.72
2023-05-21T17:13:17.417Z,5.97
2023-05-21T17:15:49.794Z,7.40
2023-05-21T17:18:18.226Z,6.03
2023-05-21T17:20:46.768Z,6.68
2023-05-21T17:23:15.311Z,5.82
2023-05-21T17:25:43.689Z,6.03
2023-05-21T17:28:12.715Z,6.05
2023-05-21T17:30:41.232Z,5.25
2023-05-21T17:33:11.618Z,10.02
2023-05-21T17:35:40.318Z,10.43
2023-05-21T17:38:08.741Z,6.87
2023-05-21T17:40:37.113Z,6.15
2023-05-21T17:43:06.305Z,4.85
2023-05-21T17:45:34.723Z,4.18
2023-05-21T17:48:03.181Z,4.50
2023-05-21T17:50:31.768Z,4.87
2023-05-21T17:53:00.611Z,5.35
2023-05-21T17:55:29.008Z,5.20
2023-05-21T17:57:57.498Z,5.28
2023-05-21T18:00:25.857Z,4.55
2023-05-21T18:02:54.248Z,5.05
2023-05-21T18:05:22.578Z,5.00
2023-05-21T18:07:50.814Z,6.70
2023-05-21T18:10:19.302Z,4.87
2023-05-21T18:12:48.116Z,4.68
2023-05-21T18:15:17.078Z,4.85
2023-05-21T18:17:45.533Z,3.92
2023-05-21T18:20:14.344Z,6.20
2023-05-21T18:22:42.494Z,5.62
2023-05-21T18:25:10.972Z,4.30
2023-05-21T18:27:39.233Z,4.80
2023-05-21T18:30:08.459Z,4.62
2023-05-21T18:32:39.735Z,4.37
2023-05-21T18:35:13.691Z,4.43
2023-05-21T18:37:45.720Z,4.15
2023-05-21T18:40:14.783Z,3.60
2023-05-21T18:42:42.962Z,3.67
2023-05-21T18:45:11.955Z,4.00
2023-05-21T18:47:41.766Z,3.65
2023-05-21T18:50:14.361Z,4.30
2023-05-21T18:52:42.892Z,3.70
2023-05-21T18:55:11.501Z,4.18
2023-05-21T18:57:40.465Z,3.78
2023-05-21T19:00:11.102Z,3.42
2023-05-21T19:02:39.574Z,3.37
2023-05-21T19:05:08.634Z,3.58
2023-05-21T19:07:37.815Z,3.70
2023-05-21T19:10:06.324Z,3.53
2023-05-21T19:12:35.461Z,3.65
2023-05-21T19:15:04.493Z,3.58
2023-05-21T19:17:32.887Z,3.85
2023-05-21T19:20:01.243Z,3.53
2023-05-21T19:22:29.693Z,3.70
2023-05-21T19:24:57.973Z,3.35
2023-05-21T19:27:26.275Z,4.70
2023-05-21T19:29:54.381Z,6.15
2023-05-21T19:32:23.130Z,4.32
2023-05-21T19:34:54.522Z,3.45
2023-05-21T19:37:22.973Z,3.25
2023-05-21T19:39:51.671Z,3.65
2023-05-21T19:42:21.371Z,3.70
2023-05-21T19:44:49.622Z,3.35
2023-05-21T19:47:17.807Z,3.58
2023-05-21T19:49:46.071Z,3.20
2023-05-21T19:52:14.310Z,3.50
2023-05-21T19:54:42.616Z,3.22
2023-05-21T19:57:12.487Z,3.03
2023-05-21T19:59:40.975Z,3.67
2023-05-21T20:02:11.770Z,3.60
2023-05-21T20:04:40.031Z,3.85
2023-05-21T20:07:08.513Z,3.97
2023-05-21T20:09:36.887Z,3.78
2023-05-21T20:12:05.315Z,3.67
2023-05-21T20:14:34.931Z,3.90
2023-05-21T20:17:03.285Z,3.47
2023-05-21T20:19:31.926Z,4.37
2023-05-21T20:22:00.822Z,3.30
2023-05-21T20:24:29.038Z,3.53
2023-05-21T20:26:57.136Z,3.37
2023-05-21T20:29:25.303Z,3.70
2023-05-21T20:31:53.501Z,3.60
2023-05-21T20:34:22.067Z,4.00
2023-05-21T20:36:50.357Z,3.17
2023-05-21T20:39:19.367Z,3.78
2023-05-21T20:41:48.500Z,3.67
2023-05-21T20:44:16.860Z,3.97
2023-05-21T20:46:45.242Z,3.40
2023-05-21T20:49:13.563Z,3.50
2023-05-21T20:51:42.680Z,4.00
2023-05-21T20:54:12.160Z,3.37
2023-05-21T20:56:43.108Z,4.62
2023-05-21T20:59:11.614Z,3.95
2023-05-21T21:01:44.999Z,4.10
2023-05-21T21:04:13.256Z,4.00
2023-05-21T21:06:41.768Z,3.78
2023-05-21T21:09:10.225Z,3.55
2023-05-21T21:11:38.477Z,3.90
2023-05-21T21:14:06.904Z,3.95
2023-05-21T21:16:35.314Z,3.92
2023-05-21T21:19:03.588Z,3.47
2023-05-21T21:21:32.713Z,3.75
2023-05-21T21:24:00.956Z,3.55
2023-05-21T21:26:29.250Z,3.65
2023-05-21T21:28:57.795Z,3.90
2023-05-21T21:31:26.276Z,4.05
2023-05-21T21:33:54.690Z,3.67
2023-05-21T21:36:22.891Z,3.85
2023-05-21T21:38:51.114Z,3.37
2023-05-21T21:41:20.903Z,3.17
2023-05-21T21:43:49.399Z,3.25
2023-05-21T21:46:17.754Z,3.08
2023-05-21T21:48:46.220Z,4.03
2023-05-21T21:51:15.463Z,3.92
2023-05-21T21:53:43.713Z,3.53
2023-05-21T21:56:12.422Z,3.50
2023-05-21T21:58:40.518Z,3.00
2023-05-21T22:01:08.685Z,3.30
2023-05-21T22:03:37.338Z,4.10
2023-05-21T22:06:05.593Z,3.47
2023-05-21T22:08:33.798Z,3.40
2023-05-21T22:11:03.267Z,3.60
2023-05-21T22:13:31.573Z,3.92
2023-05-21T22:15:59.800Z,3.62
2023-05-21T22:18:39.717Z,3.42
2023-05-21T22:21:11.000Z,3.70
2023-05-21T22:23:39.523Z,3.30
2023-05-21T22:26:08.262Z,3.05
2023-05-21T22:28:36.341Z,3.35
2023-05-21T22:31:04.474Z,3.40
2023-05-21T22:33:32.741Z,3.10
2023-05-21T22:36:00.702Z,3.62
2023-05-21T22:38:29.005Z,3.60
2023-05-21T22:40:57.191Z,3.17
2023-05-21T22:43:26.941Z,4.20
2023-05-21T22:45:54.955Z,4.07
2023-05-21T22:48:23.432Z,3.30
2023-05-21T22:50:51.636Z,3.97
2023-05-21T22:53:19.681Z,3.83
2023-05-21T22:55:47.736Z,3.62
2023-05-21T22:58:15.856Z,4.35
2023-05-21T23:00:44.364Z,4.18
2023-05-21T23:03:12.804Z,4.00
2023-05-21T23:05:40.947Z,4.32
2023-05-21T23:08:09.115Z,3.78
2023-05-21T23:10:37.449Z,4.03
2023-05-21T23:13:05.762Z,3.87
2023-05-21T23:15:33.833Z,4.00
2023-05-21T23:18:02.700Z,4.00
2023-05-21T23:20:30.656Z,4.10
2023-05-21T23:22:58.776Z,4.35
2023-05-21T23:25:26.716Z,3.83
2023-05-21T23:27:54.851Z,3.95
2023-05-21T23:30:22.967Z,3.55
2023-05-21T23:32:52.083Z,3.90
2023-05-21T23:35:20.714Z,3.90
2023-05-21T23:37:49.093Z,3.70
2023-05-21T23:40:17.257Z,3.92
2023-05-21T23:42:45.245Z,3.60
2023-05-21T23:45:13.299Z,4.28
2023-05-21T23:47:41.357Z,3.78
2023-05-21T23:50:09.901Z,4.00
2023-05-21T23:52:37.925Z,3.65
2023-05-21T23:55:06.344Z,3.53
2023-05-21T23:57:34.338Z,3.35
